createdAt,value
2023-02-03T00:03:35.125Z,77.17
2023-02-03T00:08:38.403Z,77.16
2023-02-03T00:13:40.326Z,77.53
2023-02-03T00:18:41.841Z,77.35
2023-02-03T00:23:43.490Z,77.21
2023-02-03T00:28:45.534Z,77.57
2023-02-03T00:33:47.802Z,77.16
2023-02-03T00:38:50.256Z,76.80
2023-02-03T00:43:51.927Z,76.71
2023-02-03T00:48:53.420Z,76.28
2023-02-03T00:53:54.917Z,76.27
2023-02-03T00:58:56.509Z,76.13
2023-02-03T01:03:58.016Z,76.28
2023-02-03T01:09:02.450Z,75.95
2023-02-03T01:14:03.831Z,75.74
2023-02-03T01:19:05.959Z,76.03
2023-02-03T01:24:09.124Z,75.99
2023-02-03T01:29:10.868Z,76.02
2023-02-03T01:34:14.324Z,75.43
2023-02-03T01:39:16.010Z,75.47
2023-02-03T01:44:39.858Z,75.23
2023-02-03T01:49:44.996Z,74.78
2023-02-03T01:54:49.755Z,74.63
2023-02-03T01:59:53.974Z,74.37
2023-02-03T02:05:34.352Z,74.47
2023-02-03T02:10:36.336Z,74.45
2023-02-03T02:15:50.066Z,74.39
2023-02-03T02:21:01.786Z,74.50
2023-02-03T02:26:34.511Z,74.53
2023-02-03T02:31:51.726Z,74.31
2023-02-03T02:37:05.368Z,74.38
2023-02-03T02:42:37.796Z,74.48
2023-02-03T02:47:39.534Z,74.29
2023-02-03T02:52:44.918Z,74.01
2023-02-03T02:57:48.617Z,73.79
2023-02-03T03:02:50.288Z,74.13
2023-02-03T03:07:57.682Z,73.29
2023-02-03T03:13:08.191Z,73.31
2023-02-03T03:18:16.480Z,73.39
2023-02-03T03:23:25.346Z,73.34
2023-02-03T03:28:35.423Z,73.37
2023-02-03T03:33:37.517Z,72.83
2023-02-03T03:38:44.296Z,72.88
2023-02-03T03:43:49.596Z,73.26
2023-02-03T03:48:55.799Z,73.41
2023-02-03T03:54:01.260Z,73.75
2023-02-03T03:59:04.878Z,73.50
2023-02-03T04:04:09.923Z,73.51
2023-02-03T04:09:11.593Z,73.90
2023-02-03T04:14:13.125Z,73.58
2023-02-03T04:19:14.607Z,74.00
2023-02-03T04:24:16.149Z,74.20
2023-02-03T04:29:17.790Z,73.88
2023-02-03T04:34:19.308Z,73.75
2023-02-03T04:39:21.538Z,73.44
2023-02-03T04:44:23.075Z,73.42
2023-02-03T04:49:24.579Z,73.63
2023-02-03T04:54:26.251Z,73.63
2023-02-03T04:59:28.202Z,74.16
2023-02-03T05:04:30.334Z,74.20
2023-02-03T05:09:31.879Z,74.73
2023-02-03T05:14:33.386Z,74.99
2023-02-03T05:19:34.851Z,74.64
2023-02-03T05:24:36.359Z,74.58
2023-02-03T05:29:37.987Z,74.36
2023-02-03T05:34:41.371Z,74.47
2023-02-03T05:39:43.834Z,74.63
2023-02-03T05:44:45.315Z,74.59
2023-02-03T05:49:46.864Z,75.21
2023-02-03T05:54:48.327Z,75.60
2023-02-03T05:59:49.919Z,75.28
2023-02-03T06:04:51.481Z,74.88
2023-02-03T06:09:52.989Z,75.47
2023-02-03T06:14:54.568Z,75.29
2023-02-03T06:19:56.055Z,75.05
2023-02-03T06:24:57.660Z,75.89
2023-02-03T06:29:59.181Z,75.81
2023-02-03T06:35:00.717Z,75.71
2023-02-03T06:40:02.825Z,75.71
2023-02-03T06:45:05.232Z,75.58
2023-02-03T06:50:08.162Z,75.51
2023-02-03T06:55:10.763Z,75.62
2023-02-03T07:00:16.164Z,76.14
2023-02-03T07:05:19.753Z,75.65
2023-02-03T07:10:21.609Z,76.13
2023-02-03T07:15:23.073Z,76.07
2023-02-03T07:20:26.895Z,75.52
2023-02-03T07:25:28.727Z,75.41
2023-02-03T07:30:30.719Z,75.51
2023-02-03T07:35:32.409Z,75.44
2023-02-03T07:40:33.885Z,75.47
2023-02-03T07:45:35.797Z,75.37
2023-02-03T07:50:37.568Z,75.42
2023-02-03T07:55:40.250Z,75.28
2023-02-03T08:00:41.760Z,75.16
2023-02-03T08:05:43.250Z,75.21
2023-02-03T08:10:44.740Z,74.67
2023-02-03T08:15:47.614Z,73.78
2023-02-03T08:20:50.850Z,74.00
2023-02-03T08:25:52.992Z,72.61
2023-02-03T08:30:54.685Z,72.64
2023-02-03T08:35:57.081Z,72.66
2023-02-03T08:40:58.661Z,72.07
2023-02-03T08:46:03.750Z,72.41
2023-02-03T08:51:13.456Z,70.81
2023-02-03T08:56:14.962Z,70.39
2023-02-03T09:01:16.563Z,69.55
2023-02-03T09:06:19.105Z,70.24
2023-02-03T09:11:21.989Z,69.77
2023-02-03T09:16:24.585Z,68.77
2023-02-03T09:21:34.492Z,69.23
2023-02-03T09:26:42.898Z,67.23
2023-02-03T09:31:46.991Z,68.24
2023-02-03T09:36:49.224Z,67.20
2023-02-03T09:42:10.195Z,65.31
2023-02-03T09:47:43.876Z,65.74
2023-02-03T09:52:46.381Z,66.03
2023-02-03T09:57:57.088Z,65.35
2023-02-03T10:03:14.955Z,65.90
2023-02-03T10:08:36.665Z,65.12
2023-02-03T10:14:03.213Z,64.15
2023-02-03T10:19:17.227Z,63.95
2023-02-03T10:24:26.528Z,63.84
2023-02-03T10:29:38.365Z,64.11
2023-02-03T10:34:42.273Z,64.61
2023-02-03T10:39:49.472Z,62.77
2023-02-03T10:44:59.665Z,62.46
2023-02-03T10:50:08.079Z,62.25
2023-02-03T10:55:25.569Z,62.27
2023-02-03T11:00:34.355Z,61.93
2023-02-03T11:05:35.902Z,62.02
2023-02-03T11:10:40.858Z,62.57
2023-02-03T11:15:55.867Z,61.91
2023-02-03T11:20:58.960Z,62.46
2023-02-03T11:26:10.657Z,63.04
2023-02-03T11:31:25.255Z,62.54
2023-02-03T11:36:29.127Z,62.72
2023-02-03T11:41:37.579Z,63.11
2023-02-03T11:46:40.424Z,62.91
2023-02-03T11:52:14.351Z,62.94
2023-02-03T11:57:30.718Z,63.02
2023-02-03T12:03:03.372Z,63.27
2023-02-03T12:08:27.276Z,62.74
2023-02-03T12:14:01.695Z,62.63
2023-02-03T12:19:32.382Z,62.15
2023-02-03T12:24:55.146Z,62.81
2023-02-03T12:30:06.764Z,62.26
2023-02-03T12:35:21.202Z,62.04
2023-02-03T12:40:37.185Z,62.56
2023-02-03T12:45:40.283Z,62.34
2023-02-03T12:50:56.469Z,61.83
2023-02-03T12:56:12.258Z,62.35
2023-02-03T13:01:23.445Z,62.75
2023-02-03T13:06:39.632Z,63.12
2023-02-03T13:11:46.468Z,62.45
2023-02-03T13:16:53.893Z,62.46
2023-02-03T13:21:55.524Z,62.13
2023-02-03T13:27:07.322Z,62.81
2023-02-03T13:32:30.218Z,63.03
2023-02-03T13:37:42.682Z,63.26
2023-02-03T13:43:07.050Z,64.31
2023-02-03T13:48:18.724Z,66.03
2023-02-03T13:53:26.167Z,68.42
2023-02-03T13:58:37.272Z,69.02
2023-02-03T14:03:38.792Z,69.21
2023-02-03T14:08:40.373Z,69.60
2023-02-03T14:13:41.906Z,71.62
2023-02-03T14:18:46.161Z,72.84
2023-02-03T14:23:57.186Z,72.77
2023-02-03T14:29:00.755Z,73.77
2023-02-03T14:34:14.534Z,74.62
2023-02-03T14:39:20.113Z,75.17
2023-02-03T14:44:30.796Z,76.00
2023-02-03T14:50:07.052Z,76.62
2023-02-03T14:55:43.048Z,76.14
2023-02-03T15:00:44.842Z,76.53
2023-02-03T15:06:04.992Z,77.79
2023-02-03T15:11:30.596Z,77.37
2023-02-03T15:16:32.156Z,77.39
2023-02-03T15:21:41.880Z,77.63
2023-02-03T15:26:56.515Z,78.21
2023-02-03T15:32:10.078Z,78.12
2023-02-03T15:37:18.925Z,78.56
2023-02-03T15:42:49.980Z,78.04
2023-02-03T15:48:00.171Z,78.72
2023-02-03T15:53:09.819Z,79.19
2023-02-03T15:58:25.161Z,79.78
2023-02-03T16:03:46.365Z,79.21
2023-02-03T16:08:49.057Z,80.24
2023-02-03T16:13:51.668Z,79.79
2023-02-03T16:18:56.882Z,80.02
2023-02-03T16:23:59.668Z,80.28
2023-02-03T16:29:22.980Z,81.12
2023-02-03T16:34:42.878Z,81.12
2023-02-03T16:40:03.303Z,80.49
2023-02-03T16:45:32.263Z,80.65
2023-02-03T16:50:52.544Z,80.54
2023-02-03T16:55:56.591Z,80.41
2023-02-03T17:01:00.669Z,80.67
2023-02-03T17:06:06.155Z,81.03
2023-02-03T17:11:12.939Z,81.19
2023-02-03T17:16:17.694Z,81.25
2023-02-03T17:21:22.557Z,80.98
2023-02-03T17:26:24.104Z,81.16
2023-02-03T17:31:25.953Z,80.90
2023-02-03T17:36:27.676Z,80.93
2023-02-03T17:57:26.363Z,81.16
2023-02-03T18:02:27.885Z,80.71
2023-02-03T18:07:29.378Z,80.81
2023-02-03T18:12:31.071Z,81.20
2023-02-03T18:17:32.645Z,81.68
2023-02-03T18:22:34.672Z,80.94
2023-02-03T18:27:36.616Z,81.41
2023-02-03T18:32:38.437Z,81.32
2023-02-03T18:37:39.997Z,81.10
2023-02-03T18:42:41.524Z,80.99
2023-02-03T18:47:43.043Z,80.90
2023-02-03T18:52:44.697Z,81.17
2023-02-03T18:57:46.976Z,80.99
2023-02-03T19:02:50.051Z,80.82
2023-02-03T19:07:51.641Z,80.78
2023-02-03T19:12:53.126Z,81.16
2023-02-03T19:17:54.722Z,80.91
2023-02-03T19:22:56.826Z,81.08
2023-02-03T19:27:58.428Z,81.09
2023-02-03T19:33:00.044Z,81.21
2023-02-03T19:38:01.992Z,81.15
2023-02-03T19:43:05.087Z,81.26
2023-02-03T19:48:07.402Z,81.70
2023-02-03T19:53:09.613Z,81.24
2023-02-03T19:58:12.045Z,81.57
2023-02-03T20:03:13.677Z,81.25
2023-02-03T20:08:16.684Z,81.01
2023-02-03T20:13:19.175Z,81.07
2023-02-03T20:18:21.387Z,81.09
2023-02-03T20:23:23.809Z,80.81
2023-02-03T20:28:27.845Z,80.87
2023-02-03T20:33:30.715Z,80.82
2023-02-03T20:38:32.239Z,80.62
2023-02-03T20:43:34.000Z,80.80
2023-02-03T20:48:35.468Z,80.65
2023-02-03T20:53:38.713Z,80.85
2023-02-03T20:58:42.491Z,80.75
2023-02-03T21:04:03.182Z,80.49
2023-02-03T21:09:16.388Z,80.87
2023-02-03T21:14:29.148Z,80.85
2023-02-03T21:19:33.523Z,81.18
2023-02-03T21:24:36.723Z,80.77
2023-02-03T21:29:40.418Z,80.61
2023-02-03T21:34:45.083Z,81.16
2023-02-03T21:39:48.177Z,80.93
2023-02-03T21:44:49.664Z,80.88
2023-02-03T21:49:51.165Z,80.58
2023-02-03T21:54:52.684Z,80.85
2023-02-03T21:59:54.188Z,81.01
2023-02-03T22:04:57.720Z,80.79
2023-02-03T22:09:59.208Z,80.88
2023-02-03T22:15:00.718Z,81.14
2023-02-03T22:20:02.533Z,81.13
2023-02-03T22:25:04.181Z,80.95
2023-02-03T22:30:06.561Z,81.22
2023-02-03T22:35:08.998Z,81.26
2023-02-03T22:40:11.713Z,80.99
2023-02-03T22:45:14.085Z,81.09
2023-02-03T22:50:17.440Z,81.43
2023-02-03T22:55:22.921Z,81.57
2023-02-03T23:00:25.816Z,81.69
2023-02-03T23:05:27.659Z,81.90
2023-02-03T23:10:32.751Z,82.25
2023-02-03T23:15:34.491Z,82.13
2023-02-03T23:20:36.095Z,82.25
2023-02-03T23:25:37.560Z,82.47
2023-02-03T23:30:39.074Z,83.19
2023-02-03T23:35:46.456Z,82.88
2023-02-03T23:40:48.003Z,83.24
2023-02-03T23:45:49.535Z,82.70
2023-02-03T23:50:51.772Z,82.54
2023-02-03T23:55:53.254Z,82.52
